Candido de Abreu, Brazil
Current Conditions -  °F | °C
As of 7:05 AM on Saturday 22 Nov 2014 (Local Time) from SBLO Reporting Station
Thunderstorm Thunderstorm  
Wind Chill: 68°   Ceiling: 9000
Heat Index: 68°   Visibility: 0.87mi
Dew Point: 66°   Wind: 21mph
Humidity: 94%   Direction: 210°SSW
Pressure: 29.97"   Gusts: 32mph
Location:  24.57°S, 51.33°W
Report Text: SBLO 220905Z 21018G28KT 1400 +TSRA SCT010 FEW025CB BKN090 20/19 Q1015
Loading
Personal Weather Stations






























Interactive Weather Map New forecast layout! Learn more

10-Day Weather Forecast

Advertisements
Track Severe Weather on mobile